Map

Track Data

SID SEASON NUMBER BASIN SUBBASIN NAME ISO_TIME NATURE LAT LON WMO_WIND WMO_PRES WMO_AGENCY TRACK_TYPE DIST2LAND LANDFALL IFLAG USA_AGENCY USA_ATCF_ID USA_LAT USA_LON USA_RECORD USA_STATUS USA_WIND USA_PRES USA_SSHS USA_R34_NE USA_R34_SE USA_R34_SW USA_R34_NW USA_R50_NE USA_R50_SE USA_R50_SW USA_R50_NW USA_R64_NE USA_R64_SE USA_R64_SW USA_R64_NW USA_POCI USA_ROCI USA_RMW USA_EYE TOKYO_LAT TOKYO_LON TOKYO_GRADE TOKYO_WIND TOKYO_PRES TOKYO_R50_DIR TOKYO_R50_LONG TOKYO_R50_SHORT TOKYO_R30_DIR TOKYO_R30_LONG TOKYO_R30_SHORT TOKYO_LAND CMA_LAT CMA_LON CMA_CAT CMA_WIND CMA_PRES HKO_LAT HKO_LON HKO_CAT HKO_WIND HKO_PRES NEWDELHI_LAT NEWDELHI_LON NEWDELHI_GRADE NEWDELHI_WIND NEWDELHI_PRES NEWDELHI_CI NEWDELHI_DP NEWDELHI_POCI REUNION_LAT REUNION_LON REUNION_TYPE REUNION_WIND REUNION_PRES REUNION_TNUM REUNION_CI REUNION_RMW REUNION_R34_NE REUNION_R34_SE REUNION_R34_SW REUNION_R34_NW REUNION_R50_NE REUNION_R50_SE REUNION_R50_SW REUNION_R50_NW REUNION_R64_NE REUNION_R64_SE REUNION_R64_SW REUNION_R64_NW BOM_LAT BOM_LON BOM_TYPE BOM_WIND BOM_PRES BOM_TNUM BOM_CI BOM_RMW BOM_R34_NE BOM_R34_SE BOM_R34_SW BOM_R34_NW BOM_R50_NE BOM_R50_SE BOM_R50_SW BOM_R50_NW BOM_R64_NE BOM_R64_SE BOM_R64_SW BOM_R64_NW BOM_ROCI BOM_POCI BOM_EYE BOM_POS_METHOD BOM_PRES_METHOD NADI_LAT NADI_LON NADI_CAT NADI_WIND NADI_PRES WELLINGTON_LAT WELLINGTON_LON WELLINGTON_WIND WELLINGTON_PRES DS824_LAT DS824_LON DS824_STAGE DS824_WIND DS824_PRES TD9636_LAT TD9636_LON TD9636_STAGE TD9636_WIND TD9636_PRES TD9635_LAT TD9635_LON TD9635_WIND TD9635_PRES TD9635_ROCI NEUMANN_LAT NEUMANN_LON NEUMANN_CLASS NEUMANN_WIND NEUMANN_PRES MLC_LAT MLC_LON MLC_CLASS MLC_WIND MLC_PRES USA_GUST BOM_GUST BOM_GUST_PER REUNION_GUST REUNION_GUST_PER USA_SEAHGT USA_SEARAD_NE USA_SEARAD_SE USA_SEARAD_SW USA_SEARAD_NW STORM_SPEED STORM_DIR
1934069S12153 1934 17 SP EA NOT_NAMED 1934-03-09 23:00:00 NR -12.2500 152.900 bom main 299 297 ______O___O___ -1 -12.2000 152.800 -12.3000 153.000 7 5 239
1934069S12153 1934 17 SP EA NOT_NAMED 1934-03-10 00:00:00 NR -12.2903 152.827 main 297 289 ______P___P___ -1 -12.2237 152.735 -12.3568 152.919 7 5 241
1934069S12153 1934 17 SP EA NOT_NAMED 1934-03-10 03:00:00 NR -12.4105 152.608 main 289 281 ______P___P___ -1 -12.2967 152.538 -12.5242 152.677 7 5 241
1934069S12153 1934 17 SP EA NOT_NAMED 1934-03-10 06:00:00 NR -12.5289 152.390 main 282 277 ______P___P___ -1 -12.3764 152.335 -12.6814 152.445 7 5 241
1934069S12153 1934 17 SP EA NOT_NAMED 1934-03-10 09:00:00 NR -12.6443 152.175 main 277 274 ______P___P___ -1 -12.4679 152.119 -12.8207 152.230 7 5 241
1934069S12153 1934 17 SP EA NOT_NAMED 1934-03-10 11:00:00 NR -12.7190 152.033 main 274 274 ______P___O___ -1 -12.5380 151.966 -12.9000 152.100 7 5 242
1934069S12153 1934 17 SP EA NOT_NAMED 1934-03-10 12:00:00 NR -12.7557 151.963 main 284 273 ______P___P___ -1 -12.5763 151.886 -12.9350 152.039 7 5 242
1934069S12153 1934 17 SP EA NOT_NAMED 1934-03-10 15:00:00 NR -12.8703 151.745 main 279 275 ______P___P___ -1 -12.7067 151.631 -13.0340 151.860 7 5 241
1934069S12153 1934 17 SP EA NOT_NAMED 1934-03-10 18:00:00 NR -13.0087 151.498 main 282 279 ______P___P___ -1 -12.8641 151.348 -13.1533 151.649 7 6 239
1934069S12153 1934 17 SP EA NOT_NAMED 1934-03-10 21:00:00 NR -13.1921 151.196 main 293 290 ______P___P___ -1 -13.0535 151.032 -13.3307 151.359 7 8 237
1934069S12153 1934 17 SP EA NOT_NAMED 1934-03-10 23:00:00 NR -13.3500 150.950 bom main 298 305 ______O___O___ -1 -13.2000 150.800 -13.5000 151.100 7 9 235
1934069S12153 1934 17 SP EA NOT_NAMED 1934-03-11 00:00:00 NR -13.4498 150.810 main 305 305 ______P___P___ -1 -13.2799 150.677 -13.6197 150.944 7 11 233
1934069S12153 1934 17 SP EA NOT_NAMED 1934-03-11 03:00:00 NR -13.7979 150.332 main 347 347 ______P___P___ -1 -13.5470 150.275 -14.0489 150.388 7 13 234
1934069S12153 1934 17 SP EA NOT_NAMED 1934-03-11 06:00:00 NR -14.1957 149.771 main 394 394 ______P___P___ -1 -13.8569 149.811 -14.5345 149.731 7 14 235
1934069S12153 1934 17 SP EA NOT_NAMED 1934-03-11 09:00:00 NR -14.6129 149.136 main 405 357 ______P___P___ -1 -14.2116 149.267 -15.0141 149.005 7 15 237
1934069S12153 1934 17 SP EA NOT_NAMED 1934-03-11 11:00:00 NR -14.8869 148.677 main 357 334 ______P___O___ -1 -14.4737 148.853 -15.3000 148.500 7 16 239
1934069S12153 1934 17 SP EA NOT_NAMED 1934-03-11 12:00:00 NR -15.0188 148.442 main 323 246 ______P___P___ -1 -14.6127 148.629 -15.4249 148.256 7 16 241
1934069S12153 1934 17 SP EA NOT_NAMED 1934-03-11 15:00:00 NR -15.4116 147.687 main 246 153 ______P___P___ -1 -15.0617 147.879 -15.7616 147.496 7 17 243
1934069S12153 1934 17 SP EA NOT_NAMED 1934-03-11 18:00:00 NR -15.7957 146.854 main 153 53 ______P___P___ -1 -15.5597 146.999 -16.0317 146.709 7 18 246
1934069S12153 1934 17 SP EA NOT_NAMED 1934-03-11 21:00:00 NR -16.1651 145.946 main 42 0 ______P___P___ -1 -16.1075 145.974 -16.2227 145.919 7 19 248
1934069S12153 1934 17 SP EA NOT_NAMED 1934-03-11 22:30:00 NR -16.3423 145.464 bom main 0 0 ______O___P___ -1 -16.4000 145.400 -16.2847 145.529 7 20 249
1934069S12153 1934 17 SP EA NOT_NAMED 1934-03-11 23:00:00 NR -16.4000 145.300 968 bom main 0 0 ______O___O___ -1 -16.5000 145.200 968 4 -16.3000 145.400 7 19 251
1934069S12153 1934 17 SP EA NOT_NAMED 1934-03-12 00:00:00 NR -16.4987 144.988 main 0 0 ______P___P___ -1 -16.6670 144.821 -16.3304 145.155 7 17 258
1934069S12153 1934 17 SP EA NOT_NAMED 1934-03-12 03:00:00 NR -16.6328 144.144 main 0 0 ______P___P___ -1 -16.9064 143.856 -16.3591 144.433 7 15 267
1934069S12153 1934 17 SP EA NOT_NAMED 1934-03-12 06:00:00 NR -16.5733 143.403 main 0 0 ______P___P___ -1 -16.8378 143.088 -16.3088 143.718 7 14 280
1934069S12153 1934 17 SP EA NOT_NAMED 1934-03-12 09:00:00 NR -16.3830 142.718 main 0 0 ______P___P___ -1 -16.5679 142.440 -16.1981 142.995 7 14 288
1934069S12153 1934 17 SP EA NOT_NAMED 1934-03-12 11:00:00 NR -16.2142 142.268 main 0 0 ______P___O___ -1 -16.3284 142.036 -16.1000 142.500 7 14 292
1934069S12153 1934 17 SP EA NOT_NAMED 1934-03-12 12:00:00 NR -16.1240 142.040 main 0 0 ______P___P___ -1 -16.2024 141.833 -16.0456 142.247 7 15 292
1934069S12153 1934 17 SP EA NOT_NAMED 1934-03-12 14:30:00 NR -15.8985 141.450 bom main 0 0 ______O___P___ -1 -15.9000 141.300 -15.8969 141.599 7 15 291
1934069S12153 1934 17 SP EA NOT_NAMED 1934-03-12 15:00:00 NR -15.8553 141.327 main 10 10 ______P___P___ -1 -15.8454 141.186 -15.8652 141.467 7 16 288
1934069S12153 1934 17 SP EA NOT_NAMED 1934-03-12 18:00:00 NR -15.6142 140.557 main 91 91 ______P___P___ -1 -15.5645 140.449 -15.6639 140.664 7 16 287
1934069S12153 1934 17 SP EA NOT_NAMED 1934-03-12 21:00:00 NR -15.3931 139.748 main 183 179 ______P___P___ -1 -15.3379 139.649 -15.4483 139.847 7 16 286
1934069S12153 1934 17 SP EA NOT_NAMED 1934-03-12 23:00:00 NR -15.2500 139.200 bom main 190 ______O___O___ -1 -15.2000 139.100 -15.3000 139.300 7 16 285

Digital Typhoon Data and Search

About IBTrACS Database

This database is a web-friendly format of International Best Track Archive for Climate Stewardship (IBTrACS), a global best track data archive curated by NOAA dating back to 1842.

Updated: 2021-10-21